sensor_id;sensor_type;location;lat;lon;timestamp;P1;durP1;ratioP1;P2;durP2;ratioP2
73959;SDS011;62316;48.920;2.342;2023-02-28T00:01:04;14.75;;;14.75;;
73959;SDS011;62316;48.920;2.342;2023-02-28T00:03:30;27.25;;;22.50;;
73959;SDS011;62316;48.920;2.342;2023-02-28T00:05:59;21.75;;;19.00;;
73959;SDS011;62316;48.920;2.342;2023-02-28T00:08:26;28.00;;;24.75;;
73959;SDS011;62316;48.920;2.342;2023-02-28T00:10:52;26.75;;;21.25;;
73959;SDS011;62316;48.920;2.342;2023-02-28T00:13:17;26.25;;;22.00;;
73959;SDS011;62316;48.920;2.342;2023-02-28T00:15:42;20.50;;;19.75;;
73959;SDS011;62316;48.920;2.342;2023-02-28T00:18:09;21.00;;;19.00;;
73959;SDS011;62316;48.920;2.342;2023-02-28T00:20:34;22.75;;;21.00;;
73959;SDS011;62316;48.920;2.342;2023-02-28T00:22:59;20.50;;;20.50;;
73959;SDS011;62316;48.920;2.342;2023-02-28T00:25:25;21.00;;;20.00;;
73959;SDS011;62316;48.920;2.342;2023-02-28T00:27:51;30.75;;;25.00;;
73959;SDS011;62316;48.920;2.342;2023-02-28T00:30:18;23.00;;;23.00;;
73959;SDS011;62316;48.920;2.342;2023-02-28T00:32:48;23.00;;;21.25;;
73959;SDS011;62316;48.920;2.342;2023-02-28T00:35:14;23.00;;;21.25;;
73959;SDS011;62316;48.920;2.342;2023-02-28T00:37:40;23.75;;;22.50;;
73959;SDS011;62316;48.920;2.342;2023-02-28T00:40:06;23.50;;;21.25;;
73959;SDS011;62316;48.920;2.342;2023-02-28T00:42:32;20.25;;;18.50;;
73959;SDS011;62316;48.920;2.342;2023-02-28T00:44:59;22.00;;;20.00;;
73959;SDS011;62316;48.920;2.342;2023-02-28T00:47:25;20.50;;;16.00;;
73959;SDS011;62316;48.920;2.342;2023-02-28T00:49:50;23.50;;;21.00;;
73959;SDS011;62316;48.920;2.342;2023-02-28T00:52:16;22.75;;;20.50;;
73959;SDS011;62316;48.920;2.342;2023-02-28T00:54:41;20.25;;;19.00;;
73959;SDS011;62316;48.920;2.342;2023-02-28T00:57:06;27.75;;;24.50;;
73959;SDS011;62316;48.920;2.342;2023-02-28T00:59:32;20.00;;;18.25;;
73959;SDS011;62316;48.920;2.342;2023-02-28T01:01:57;33.00;;;25.00;;
73959;SDS011;62316;48.920;2.342;2023-02-28T01:04:23;16.75;;;16.75;;
73959;SDS011;62316;48.920;2.342;2023-02-28T01:06:48;21.00;;;20.50;;
73959;SDS011;62316;48.920;2.342;2023-02-28T01:09:14;22.25;;;17.25;;
73959;SDS011;62316;48.920;2.342;2023-02-28T01:11:39;18.25;;;18.25;;
73959;SDS011;62316;48.920;2.342;2023-02-28T01:14:16;25.00;;;24.25;;
73959;SDS011;62316;48.920;2.342;2023-02-28T01:16:42;24.25;;;20.50;;
73959;SDS011;62316;48.920;2.342;2023-02-28T01:19:07;22.75;;;19.25;;
73959;SDS011;62316;48.920;2.342;2023-02-28T01:21:33;25.50;;;23.75;;
73959;SDS011;62316;48.920;2.342;2023-02-28T01:23:59;22.25;;;19.75;;
73959;SDS011;62316;48.920;2.342;2023-02-28T01:26:25;20.50;;;17.25;;
73959;SDS011;62316;48.920;2.342;2023-02-28T01:28:51;27.00;;;22.75;;
73959;SDS011;62316;48.920;2.342;2023-02-28T01:31:17;21.00;;;18.25;;
73959;SDS011;62316;48.920;2.342;2023-02-28T01:33:43;20.25;;;20.00;;
73959;SDS011;62316;48.920;2.342;2023-02-28T01:36:13;23.50;;;20.75;;
73959;SDS011;62316;48.920;2.342;2023-02-28T01:38:43;21.00;;;18.00;;
73959;SDS011;62316;48.920;2.342;2023-02-28T01:41:09;22.75;;;20.00;;
73959;SDS011;62316;48.920;2.342;2023-02-28T01:46:09;22.25;;;18.00;;
73959;SDS011;62316;48.920;2.342;2023-02-28T01:48:36;24.25;;;18.25;;
73959;SDS011;62316;48.920;2.342;2023-02-28T01:51:05;19.00;;;19.00;;
73959;SDS011;62316;48.920;2.342;2023-02-28T01:53:37;26.50;;;25.75;;
73959;SDS011;62316;48.920;2.342;2023-02-28T01:56:07;22.50;;;20.50;;
73959;SDS011;62316;48.920;2.342;2023-02-28T01:58:34;23.25;;;21.25;;
73959;SDS011;62316;48.920;2.342;2023-02-28T02:01:00;20.50;;;16.25;;
73959;SDS011;62316;48.920;2.342;2023-02-28T02:03:27;28.00;;;21.25;;
73959;SDS011;62316;48.920;2.342;2023-02-28T02:05:54;24.50;;;22.50;;
73959;SDS011;62316;48.920;2.342;2023-02-28T02:08:21;25.75;;;21.00;;
73959;SDS011;62316;48.920;2.342;2023-02-28T02:10:50;20.50;;;19.00;;
73959;SDS011;62316;48.920;2.342;2023-02-28T02:41:13;19.75;;;16.50;;
73959;SDS011;62316;48.920;2.342;2023-02-28T02:43:46;24.00;;;19.75;;
73959;SDS011;62316;48.920;2.342;2023-02-28T02:46:25;19.75;;;19.75;;
73959;SDS011;62316;48.920;2.342;2023-02-28T02:49:04;20.25;;;18.00;;
73959;SDS011;62316;48.920;2.342;2023-02-28T02:51:31;19.25;;;19.25;;
73959;SDS011;62316;48.920;2.342;2023-02-28T02:56:32;18.50;;;17.50;;
73959;SDS011;62316;48.920;2.342;2023-02-28T02:59:00;18.00;;;18.00;;
73959;SDS011;62316;48.920;2.342;2023-02-28T03:01:28;20.00;;;18.25;;
73959;SDS011;62316;48.920;2.342;2023-02-28T03:04:00;18.00;;;15.75;;
73959;SDS011;62316;48.920;2.342;2023-02-28T03:06:28;20.25;;;17.00;;
73959;SDS011;62316;48.920;2.342;2023-02-28T03:08:54;22.00;;;20.00;;
73959;SDS011;62316;48.920;2.342;2023-02-28T03:11:19;16.75;;;16.50;;
73959;SDS011;62316;48.920;2.342;2023-02-28T03:19:26;17.25;;;17.25;;
73959;SDS011;62316;48.920;2.342;2023-02-28T03:22:03;18.00;;;18.00;;
73959;SDS011;62316;48.920;2.342;2023-02-28T03:24:45;17.25;;;16.00;;
73959;SDS011;62316;48.920;2.342;2023-02-28T03:27:27;19.75;;;17.50;;
73959;SDS011;62316;48.920;2.342;2023-02-28T03:30:41;15.75;;;15.75;;
73959;SDS011;62316;48.920;2.342;2023-02-28T03:32:50;17.00;;;15.00;;
73959;SDS011;62316;48.920;2.342;2023-02-28T03:35:48;16.75;;;14.00;;
73959;SDS011;62316;48.920;2.342;2023-02-28T03:41:15;16.75;;;16.75;;
73959;SDS011;62316;48.920;2.342;2023-02-28T03:43:52;18.75;;;14.50;;
73959;SDS011;62316;48.920;2.342;2023-02-28T03:46:21;17.00;;;17.00;;
73959;SDS011;62316;48.920;2.342;2023-02-28T03:49:09;22.00;;;17.25;;
73959;SDS011;62316;48.920;2.342;2023-02-28T03:51:40;14.25;;;14.25;;
73959;SDS011;62316;48.920;2.342;2023-02-28T03:54:08;16.25;;;16.25;;
73959;SDS011;62316;48.920;2.342;2023-02-28T03:56:41;21.25;;;15.75;;
73959;SDS011;62316;48.920;2.342;2023-02-28T03:59:13;15.50;;;13.50;;
73959;SDS011;62316;48.920;2.342;2023-02-28T04:01:44;18.50;;;18.50;;
73959;SDS011;62316;48.920;2.342;2023-02-28T04:04:10;18.50;;;16.25;;
73959;SDS011;62316;48.920;2.342;2023-02-28T04:06:37;25.25;;;16.50;;
73959;SDS011;62316;48.920;2.342;2023-02-28T04:09:03;15.00;;;15.00;;
73959;SDS011;62316;48.920;2.342;2023-02-28T04:11:32;17.25;;;16.50;;
73959;SDS011;62316;48.920;2.342;2023-02-28T04:14:05;16.00;;;14.25;;
73959;SDS011;62316;48.920;2.342;2023-02-28T04:16:32;19.50;;;18.75;;
73959;SDS011;62316;48.920;2.342;2023-02-28T04:18:59;19.75;;;17.00;;
73959;SDS011;62316;48.920;2.342;2023-02-28T04:21:31;22.75;;;19.00;;
73959;SDS011;62316;48.920;2.342;2023-02-28T04:23:59;14.25;;;14.00;;
73959;SDS011;62316;48.920;2.342;2023-02-28T04:26:35;17.50;;;16.00;;
73959;SDS011;62316;48.920;2.342;2023-02-28T04:29:04;21.00;;;18.75;;
73959;SDS011;62316;48.920;2.342;2023-02-28T04:31:30;15.50;;;15.00;;
73959;SDS011;62316;48.920;2.342;2023-02-28T04:33:56;17.00;;;16.00;;
73959;SDS011;62316;48.920;2.342;2023-02-28T04:36:21;17.75;;;17.00;;
73959;SDS011;62316;48.920;2.342;2023-02-28T04:38:48;13.00;;;12.00;;
73959;SDS011;62316;48.920;2.342;2023-02-28T04:41:13;16.00;;;12.75;;
73959;SDS011;62316;48.920;2.342;2023-02-28T04:43:39;19.00;;;18.00;;
73959;SDS011;62316;48.920;2.342;2023-02-28T04:46:05;17.75;;;15.75;;
73959;SDS011;62316;48.920;2.342;2023-02-28T04:48:32;20.75;;;18.00;;
73959;SDS011;62316;48.920;2.342;2023-02-28T04:51:00;19.75;;;16.75;;
73959;SDS011;62316;48.920;2.342;2023-02-28T04:53:39;19.00;;;16.00;;
73959;SDS011;62316;48.920;2.342;2023-02-28T04:56:06;18.50;;;18.50;;
73959;SDS011;62316;48.920;2.342;2023-02-28T04:58:32;23.75;;;15.25;;
73959;SDS011;62316;48.920;2.342;2023-02-28T05:01:03;15.00;;;14.50;;
73959;SDS011;62316;48.920;2.342;2023-02-28T05:03:30;18.50;;;16.75;;
73959;SDS011;62316;48.920;2.342;2023-02-28T05:05:55;17.50;;;15.75;;
73959;SDS011;62316;48.920;2.342;2023-02-28T05:08:20;19.00;;;17.25;;
73959;SDS011;62316;48.920;2.342;2023-02-28T05:10:46;21.75;;;17.25;;
73959;SDS011;62316;48.920;2.342;2023-02-28T05:13:11;22.25;;;21.00;;
73959;SDS011;62316;48.920;2.342;2023-02-28T05:15:37;16.75;;;16.75;;
73959;SDS011;62316;48.920;2.342;2023-02-28T05:18:03;27.25;;;21.25;;
73959;SDS011;62316;48.920;2.342;2023-02-28T05:20:28;23.75;;;21.25;;
73959;SDS011;62316;48.920;2.342;2023-02-28T05:22:53;23.75;;;22.00;;
73959;SDS011;62316;48.920;2.342;2023-02-28T05:25:20;25.50;;;23.00;;
73959;SDS011;62316;48.920;2.342;2023-02-28T05:27:49;21.50;;;20.25;;
73959;SDS011;62316;48.920;2.342;2023-02-28T05:30:14;25.75;;;25.75;;
73959;SDS011;62316;48.920;2.342;2023-02-28T05:32:40;26.00;;;26.00;;
73959;SDS011;62316;48.920;2.342;2023-02-28T05:35:09;29.75;;;26.00;;
73959;SDS011;62316;48.920;2.342;2023-02-28T05:37:36;26.00;;;26.00;;
73959;SDS011;62316;48.920;2.342;2023-02-28T05:40:02;32.75;;;29.75;;
73959;SDS011;62316;48.920;2.342;2023-02-28T05:42:31;29.75;;;25.50;;
73959;SDS011;62316;48.920;2.342;2023-02-28T05:44:56;36.50;;;30.25;;
73959;SDS011;62316;48.920;2.342;2023-02-28T05:47:22;30.25;;;29.00;;
73959;SDS011;62316;48.920;2.342;2023-02-28T05:49:47;31.75;;;31.75;;
73959;SDS011;62316;48.920;2.342;2023-02-28T05:52:12;36.00;;;34.00;;
73959;SDS011;62316;48.920;2.342;2023-02-28T05:54:38;30.50;;;28.75;;
73959;SDS011;62316;48.920;2.342;2023-02-28T05:57:03;39.00;;;36.75;;
73959;SDS011;62316;48.920;2.342;2023-02-28T05:59:29;40.75;;;36.00;;
73959;SDS011;62316;48.920;2.342;2023-02-28T06:01:54;40.25;;;36.50;;
73959;SDS011;62316;48.920;2.342;2023-02-28T06:04:20;43.50;;;41.25;;
73959;SDS011;62316;48.920;2.342;2023-02-28T06:06:46;47.75;;;37.50;;
73959;SDS011;62316;48.920;2.342;2023-02-28T06:09:13;44.00;;;41.00;;
73959;SDS011;62316;48.920;2.342;2023-02-28T06:11:39;43.25;;;35.50;;
73959;SDS011;62316;48.920;2.342;2023-02-28T06:14:04;35.00;;;32.25;;
73959;SDS011;62316;48.920;2.342;2023-02-28T06:16:31;42.00;;;32.50;;
73959;SDS011;62316;48.920;2.342;2023-02-28T06:19:01;26.75;;;25.25;;
73959;SDS011;62316;48.920;2.342;2023-02-28T06:21:28;45.75;;;39.25;;
73959;SDS011;62316;48.920;2.342;2023-02-28T06:23:54;35.00;;;33.50;;
73959;SDS011;62316;48.920;2.342;2023-02-28T06:26:21;39.50;;;36.00;;
73959;SDS011;62316;48.920;2.342;2023-02-28T06:28:46;47.75;;;39.50;;
73959;SDS011;62316;48.920;2.342;2023-02-28T06:31:13;36.25;;;36.25;;
73959;SDS011;62316;48.920;2.342;2023-02-28T06:33:39;41.50;;;31.25;;
73959;SDS011;62316;48.920;2.342;2023-02-28T06:36:06;45.75;;;37.00;;
73959;SDS011;62316;48.920;2.342;2023-02-28T06:38:32;40.25;;;35.75;;
73959;SDS011;62316;48.920;2.342;2023-02-28T06:40:58;43.00;;;39.50;;
73959;SDS011;62316;48.920;2.342;2023-02-28T06:43:25;43.50;;;39.25;;
73959;SDS011;62316;48.920;2.342;2023-02-28T06:45:54;24.25;;;20.75;;
73959;SDS011;62316;48.920;2.342;2023-02-28T06:48:20;55.00;;;42.50;;
73959;SDS011;62316;48.920;2.342;2023-02-28T06:50:46;46.75;;;37.25;;
73959;SDS011;62316;48.920;2.342;2023-02-28T06:53:11;40.50;;;37.25;;
73959;SDS011;62316;48.920;2.342;2023-02-28T06:55:37;43.00;;;33.75;;
73959;SDS011;62316;48.920;2.342;2023-02-28T06:58:03;54.50;;;46.00;;
73959;SDS011;62316;48.920;2.342;2023-02-28T07:00:38;43.25;;;40.25;;
73959;SDS011;62316;48.920;2.342;2023-02-28T07:03:03;48.75;;;41.25;;
73959;SDS011;62316;48.920;2.342;2023-02-28T07:05:29;48.00;;;43.50;;
73959;SDS011;62316;48.920;2.342;2023-02-28T07:07:54;53.75;;;43.50;;
73959;SDS011;62316;48.920;2.342;2023-02-28T07:10:19;48.50;;;39.75;;
73959;SDS011;62316;48.920;2.342;2023-02-28T07:12:45;44.75;;;40.25;;
73959;SDS011;62316;48.920;2.342;2023-02-28T07:15:10;48.50;;;38.75;;
73959;SDS011;62316;48.920;2.342;2023-02-28T07:17:36;44.75;;;42.00;;
73959;SDS011;62316;48.920;2.342;2023-02-28T07:20:01;44.50;;;39.75;;
73959;SDS011;62316;48.920;2.342;2023-02-28T07:22:29;51.50;;;44.00;;
73959;SDS011;62316;48.920;2.342;2023-02-28T07:24:54;54.25;;;44.25;;
73959;SDS011;62316;48.920;2.342;2023-02-28T07:27:20;40.75;;;40.75;;
73959;SDS011;62316;48.920;2.342;2023-02-28T07:29:49;44.25;;;41.00;;
73959;SDS011;62316;48.920;2.342;2023-02-28T07:32:14;47.50;;;40.75;;
73959;SDS011;62316;48.920;2.342;2023-02-28T07:34:40;43.25;;;41.25;;
73959;SDS011;62316;48.920;2.342;2023-02-28T07:37:08;40.50;;;36.50;;
73959;SDS011;62316;48.920;2.342;2023-02-28T07:39:34;44.50;;;41.00;;
73959;SDS011;62316;48.920;2.342;2023-02-28T07:41:59;48.75;;;39.50;;
73959;SDS011;62316;48.920;2.342;2023-02-28T07:44:25;42.75;;;34.75;;
73959;SDS011;62316;48.920;2.342;2023-02-28T07:46:51;46.75;;;41.50;;
73959;SDS011;62316;48.920;2.342;2023-02-28T07:49:17;46.75;;;41.00;;
73959;SDS011;62316;48.920;2.342;2023-02-28T07:51:43;41.25;;;39.25;;
73959;SDS011;62316;48.920;2.342;2023-02-28T07:54:08;39.50;;;35.25;;
73959;SDS011;62316;48.920;2.342;2023-02-28T07:56:34;42.75;;;37.25;;
73959;SDS011;62316;48.920;2.342;2023-02-28T07:58:59;48.50;;;39.50;;
73959;SDS011;62316;48.920;2.342;2023-02-28T08:01:26;46.50;;;43.00;;
73959;SDS011;62316;48.920;2.342;2023-02-28T08:03:51;43.25;;;40.50;;
73959;SDS011;62316;48.920;2.342;2023-02-28T08:06:21;35.75;;;33.25;;
73959;SDS011;62316;48.920;2.342;2023-02-28T08:08:48;45.50;;;41.00;;
73959;SDS011;62316;48.920;2.342;2023-02-28T08:11:14;39.25;;;35.00;;
73959;SDS011;62316;48.920;2.342;2023-02-28T08:13:41;44.00;;;36.25;;
73959;SDS011;62316;48.920;2.342;2023-02-28T08:16:07;47.00;;;39.50;;
73959;SDS011;62316;48.920;2.342;2023-02-28T08:18:33;51.25;;;45.25;;
73959;SDS011;62316;48.920;2.342;2023-02-28T08:20:58;45.75;;;41.00;;
73959;SDS011;62316;48.920;2.342;2023-02-28T08:23:24;44.25;;;38.75;;
73959;SDS011;62316;48.920;2.342;2023-02-28T08:25:53;38.50;;;33.75;;
73959;SDS011;62316;48.920;2.342;2023-02-28T08:28:19;52.75;;;42.50;;
73959;SDS011;62316;48.920;2.342;2023-02-28T08:30:45;48.25;;;43.25;;
73959;SDS011;62316;48.920;2.342;2023-02-28T08:33:10;54.25;;;45.00;;
73959;SDS011;62316;48.920;2.342;2023-02-28T08:35:36;42.50;;;39.25;;
73959;SDS011;62316;48.920;2.342;2023-02-28T08:38:02;47.00;;;41.75;;
73959;SDS011;62316;48.920;2.342;2023-02-28T08:40:27;57.25;;;44.75;;
73959;SDS011;62316;48.920;2.342;2023-02-28T08:42:53;45.25;;;43.25;;
73959;SDS011;62316;48.920;2.342;2023-02-28T08:45:18;48.75;;;40.00;;
73959;SDS011;62316;48.920;2.342;2023-02-28T08:47:44;50.50;;;42.75;;
73959;SDS011;62316;48.920;2.342;2023-02-28T08:50:09;52.50;;;42.75;;
73959;SDS011;62316;48.920;2.342;2023-02-28T08:52:35;39.50;;;34.50;;
73959;SDS011;62316;48.920;2.342;2023-02-28T08:55:00;45.75;;;40.25;;
73959;SDS011;62316;48.920;2.342;2023-02-28T08:57:26;46.25;;;39.25;;
73959;SDS011;62316;48.920;2.342;2023-02-28T08:59:52;43.00;;;31.00;;
73959;SDS011;62316;48.920;2.342;2023-02-28T09:02:17;43.25;;;37.50;;
73959;SDS011;62316;48.920;2.342;2023-02-28T09:04:43;43.00;;;38.75;;
73959;SDS011;62316;48.920;2.342;2023-02-28T09:07:10;42.00;;;38.75;;
73959;SDS011;62316;48.920;2.342;2023-02-28T09:09:36;45.00;;;38.50;;
73959;SDS011;62316;48.920;2.342;2023-02-28T09:12:01;44.25;;;38.25;;
73959;SDS011;62316;48.920;2.342;2023-02-28T09:14:27;62.75;;;48.25;;
73959;SDS011;62316;48.920;2.342;2023-02-28T09:16:52;48.50;;;38.50;;
73959;SDS011;62316;48.920;2.342;2023-02-28T09:19:18;42.50;;;37.00;;
73959;SDS011;62316;48.920;2.342;2023-02-28T09:21:43;39.25;;;32.50;;
73959;SDS011;62316;48.920;2.342;2023-02-28T09:24:09;41.75;;;38.50;;
73959;SDS011;62316;48.920;2.342;2023-02-28T09:26:36;39.50;;;34.00;;
73959;SDS011;62316;48.920;2.342;2023-02-28T09:29:02;39.50;;;36.75;;
73959;SDS011;62316;48.920;2.342;2023-02-28T09:31:28;42.75;;;38.00;;
73959;SDS011;62316;48.920;2.342;2023-02-28T09:33:55;46.75;;;40.50;;
73959;SDS011;62316;48.920;2.342;2023-02-28T09:36:22;40.50;;;34.00;;
73959;SDS011;62316;48.920;2.342;2023-02-28T09:38:48;36.25;;;32.50;;
73959;SDS011;62316;48.920;2.342;2023-02-28T09:41:15;37.25;;;31.75;;
73959;SDS011;62316;48.920;2.342;2023-02-28T09:43:44;36.50;;;32.75;;
73959;SDS011;62316;48.920;2.342;2023-02-28T09:49:06;30.75;;;30.25;;
73959;SDS011;62316;48.920;2.342;2023-02-28T09:51:42;31.50;;;30.00;;
73959;SDS011;62316;48.920;2.342;2023-02-28T09:54:33;38.75;;;33.00;;
73959;SDS011;62316;48.920;2.342;2023-02-28T09:57:07;28.25;;;23.50;;
73959;SDS011;62316;48.920;2.342;2023-02-28T09:59:41;33.00;;;29.75;;
73959;SDS011;62316;48.920;2.342;2023-02-28T10:05:25;26.50;;;23.75;;
73959;SDS011;62316;48.920;2.342;2023-02-28T10:08:13;34.50;;;30.75;;
73959;SDS011;62316;48.920;2.342;2023-02-28T10:10:45;33.00;;;30.00;;
73959;SDS011;62316;48.920;2.342;2023-02-28T10:16:03;38.50;;;33.75;;
73959;SDS011;62316;48.920;2.342;2023-02-28T10:18:41;22.50;;;21.75;;
73959;SDS011;62316;48.920;2.342;2023-02-28T10:21:21;30.25;;;27.50;;
73959;SDS011;62316;48.920;2.342;2023-02-28T10:23:53;32.50;;;31.25;;
73959;SDS011;62316;48.920;2.342;2023-02-28T10:26:24;34.00;;;27.75;;
73959;SDS011;62316;48.920;2.342;2023-02-28T10:28:51;35.50;;;29.50;;
73959;SDS011;62316;48.920;2.342;2023-02-28T10:31:18;33.50;;;29.00;;
73959;SDS011;62316;48.920;2.342;2023-02-28T10:33:44;24.50;;;23.00;;
73959;SDS011;62316;48.920;2.342;2023-02-28T10:36:12;31.25;;;30.00;;
73959;SDS011;62316;48.920;2.342;2023-02-28T10:38:39;30.00;;;28.25;;
73959;SDS011;62316;48.920;2.342;2023-02-28T10:41:06;31.75;;;29.25;;
73959;SDS011;62316;48.920;2.342;2023-02-28T10:43:32;26.25;;;22.25;;
73959;SDS011;62316;48.920;2.342;2023-02-28T10:45:59;23.75;;;20.50;;
73959;SDS011;62316;48.920;2.342;2023-02-28T10:48:32;23.00;;;23.00;;
73959;SDS011;62316;48.920;2.342;2023-02-28T10:51:02;26.75;;;22.75;;
73959;SDS011;62316;48.920;2.342;2023-02-28T10:53:36;22.25;;;19.00;;
73959;SDS011;62316;48.920;2.342;2023-02-28T10:56:05;29.00;;;28.75;;
73959;SDS011;62316;48.920;2.342;2023-02-28T11:01:34;14.75;;;11.50;;
73959;SDS011;62316;48.920;2.342;2023-02-28T11:09:48;22.00;;;20.50;;
73959;SDS011;62316;48.920;2.342;2023-02-28T11:12:28;24.75;;;24.75;;
73959;SDS011;62316;48.920;2.342;2023-02-28T11:15:00;19.25;;;15.00;;
73959;SDS011;62316;48.920;2.342;2023-02-28T11:17:30;22.75;;;18.75;;
73959;SDS011;62316;48.920;2.342;2023-02-28T11:19:58;25.50;;;23.50;;
73959;SDS011;62316;48.920;2.342;2023-02-28T11:22:28;16.00;;;16.00;;
73959;SDS011;62316;48.920;2.342;2023-02-28T11:24:57;20.25;;;17.50;;
73959;SDS011;62316;48.920;2.342;2023-02-28T11:29:50;15.00;;;14.50;;
73959;SDS011;62316;48.920;2.342;2023-02-28T11:32:18;16.25;;;13.50;;
73959;SDS011;62316;48.920;2.342;2023-02-28T11:34:45;28.75;;;24.25;;
73959;SDS011;62316;48.920;2.342;2023-02-28T11:37:16;15.25;;;15.00;;
73959;SDS011;62316;48.920;2.342;2023-02-28T11:39:43;23.25;;;20.00;;
73959;SDS011;62316;48.920;2.342;2023-02-28T11:47:48;19.00;;;16.00;;
73959;SDS011;62316;48.920;2.342;2023-02-28T11:56:00;17.50;;;17.00;;
73959;SDS011;62316;48.920;2.342;2023-02-28T12:04:01;13.75;;;12.00;;
73959;SDS011;62316;48.920;2.342;2023-02-28T12:27:32;12.25;;;10.25;;
73959;SDS011;62316;48.920;2.342;2023-02-28T12:30:04;14.75;;;14.50;;
73959;SDS011;62316;48.920;2.342;2023-02-28T12:32:41;21.25;;;16.50;;
73959;SDS011;62316;48.920;2.342;2023-02-28T12:40:26;15.50;;;15.50;;
73959;SDS011;62316;48.920;2.342;2023-02-28T12:43:04;23.00;;;21.25;;
73959;SDS011;62316;48.920;2.342;2023-02-28T12:45:52;17.50;;;16.50;;
73959;SDS011;62316;48.920;2.342;2023-02-28T12:48:29;20.25;;;18.75;;
73959;SDS011;62316;48.920;2.342;2023-02-28T12:51:02;18.25;;;16.25;;
73959;SDS011;62316;48.920;2.342;2023-02-28T12:53:31;25.00;;;18.75;;
73959;SDS011;62316;48.920;2.342;2023-02-28T12:59:32;16.50;;;14.50;;
73959;SDS011;62316;48.920;2.342;2023-02-28T13:08:48;19.00;;;17.00;;
73959;SDS011;62316;48.920;2.342;2023-02-28T13:11:41;19.00;;;16.00;;
73959;SDS011;62316;48.920;2.342;2023-02-28T13:14:19;17.75;;;15.00;;
73959;SDS011;62316;48.920;2.342;2023-02-28T13:17:09;19.25;;;17.75;;
73959;SDS011;62316;48.920;2.342;2023-02-28T13:22:05;14.50;;;14.50;;
73959;SDS011;62316;48.920;2.342;2023-02-28T13:29:39;16.00;;;14.50;;
73959;SDS011;62316;48.920;2.342;2023-02-28T13:34:33;13.75;;;13.00;;
73959;SDS011;62316;48.920;2.342;2023-02-28T13:47:36;16.25;;;15.25;;
73959;SDS011;62316;48.920;2.342;2023-02-28T14:06:31;14.75;;;13.75;;
73959;SDS011;62316;48.920;2.342;2023-02-28T14:08:59;18.00;;;16.75;;
73959;SDS011;62316;48.920;2.342;2023-02-28T14:11:27;21.00;;;18.00;;
73959;SDS011;62316;48.920;2.342;2023-02-28T14:13:56;12.50;;;12.50;;
73959;SDS011;62316;48.920;2.342;2023-02-28T14:16:23;10.50;;;10.50;;
73959;SDS011;62316;48.920;2.342;2023-02-28T14:19:02;17.25;;;13.25;;
73959;SDS011;62316;48.920;2.342;2023-02-28T14:21:40;19.00;;;17.00;;
73959;SDS011;62316;48.920;2.342;2023-02-28T14:27:15;21.50;;;18.50;;
73959;SDS011;62316;48.920;2.342;2023-02-28T14:32:54;19.75;;;18.25;;
73959;SDS011;62316;48.920;2.342;2023-02-28T14:38:31;11.75;;;9.00;;
73959;SDS011;62316;48.920;2.342;2023-02-28T14:41:00;18.75;;;16.00;;
73959;SDS011;62316;48.920;2.342;2023-02-28T14:43:31;16.00;;;13.75;;
73959;SDS011;62316;48.920;2.342;2023-02-28T14:45:58;15.50;;;14.75;;
73959;SDS011;62316;48.920;2.342;2023-02-28T14:48:25;18.75;;;17.25;;
73959;SDS011;62316;48.920;2.342;2023-02-28T14:50:53;16.25;;;14.75;;
73959;SDS011;62316;48.920;2.342;2023-02-28T14:53:21;16.00;;;12.75;;
73959;SDS011;62316;48.920;2.342;2023-02-28T14:55:48;10.50;;;10.50;;
73959;SDS011;62316;48.920;2.342;2023-02-28T14:58:50;20.50;;;20.50;;
73959;SDS011;62316;48.920;2.342;2023-02-28T15:01:06;12.75;;;11.50;;
73959;SDS011;62316;48.920;2.342;2023-02-28T15:03:36;17.00;;;12.25;;
73959;SDS011;62316;48.920;2.342;2023-02-28T15:06:03;17.50;;;15.00;;
73959;SDS011;62316;48.920;2.342;2023-02-28T15:08:31;17.25;;;16.00;;
73959;SDS011;62316;48.920;2.342;2023-02-28T15:11:04;13.50;;;13.25;;
73959;SDS011;62316;48.920;2.342;2023-02-28T15:13:41;16.00;;;15.25;;
73959;SDS011;62316;48.920;2.342;2023-02-28T15:16:19;20.25;;;16.25;;
73959;SDS011;62316;48.920;2.342;2023-02-28T15:19:00;20.00;;;14.25;;
73959;SDS011;62316;48.920;2.342;2023-02-28T15:21:27;18.00;;;17.50;;
73959;SDS011;62316;48.920;2.342;2023-02-28T15:23:59;22.25;;;19.25;;
73959;SDS011;62316;48.920;2.342;2023-02-28T15:26:31;11.50;;;11.50;;
73959;SDS011;62316;48.920;2.342;2023-02-28T15:29:03;21.75;;;18.75;;
73959;SDS011;62316;48.920;2.342;2023-02-28T15:31:32;18.00;;;16.50;;
73959;SDS011;62316;48.920;2.342;2023-02-28T15:34:02;22.00;;;21.25;;
73959;SDS011;62316;48.920;2.342;2023-02-28T15:36:30;20.50;;;19.00;;
73959;SDS011;62316;48.920;2.342;2023-02-28T15:38:58;18.00;;;16.25;;
73959;SDS011;62316;48.920;2.342;2023-02-28T15:41:34;23.00;;;19.75;;
73959;SDS011;62316;48.920;2.342;2023-02-28T15:46:59;29.50;;;28.00;;
73959;SDS011;62316;48.920;2.342;2023-02-28T15:49:29;10.75;;;10.75;;
73959;SDS011;62316;48.920;2.342;2023-02-28T15:52:03;16.75;;;15.25;;
73959;SDS011;62316;48.920;2.342;2023-02-28T15:54:30;18.75;;;16.25;;
73959;SDS011;62316;48.920;2.342;2023-02-28T15:57:00;20.50;;;19.25;;
73959;SDS011;62316;48.920;2.342;2023-02-28T15:59:33;15.75;;;14.50;;
73959;SDS011;62316;48.920;2.342;2023-02-28T16:04:34;18.25;;;16.00;;
73959;SDS011;62316;48.920;2.342;2023-02-28T16:07:03;16.00;;;13.25;;
73959;SDS011;62316;48.920;2.342;2023-02-28T16:09:30;17.00;;;14.00;;
73959;SDS011;62316;48.920;2.342;2023-02-28T16:11:56;17.25;;;16.50;;
73959;SDS011;62316;48.920;2.342;2023-02-28T16:14:26;19.00;;;17.00;;
73959;SDS011;62316;48.920;2.342;2023-02-28T16:16:54;17.25;;;14.50;;
73959;SDS011;62316;48.920;2.342;2023-02-28T16:19:20;21.25;;;18.75;;
73959;SDS011;62316;48.920;2.342;2023-02-28T16:21:48;21.75;;;17.25;;
73959;SDS011;62316;48.920;2.342;2023-02-28T16:24:14;16.75;;;16.75;;
73959;SDS011;62316;48.920;2.342;2023-02-28T16:26:40;17.50;;;16.00;;
73959;SDS011;62316;48.920;2.342;2023-02-28T16:29:06;15.50;;;15.50;;
73959;SDS011;62316;48.920;2.342;2023-02-28T16:31:33;17.75;;;15.25;;
73959;SDS011;62316;48.920;2.342;2023-02-28T16:34:00;17.00;;;17.00;;
73959;SDS011;62316;48.920;2.342;2023-02-28T16:36:26;19.25;;;18.50;;
73959;SDS011;62316;48.920;2.342;2023-02-28T16:38:53;16.50;;;13.50;;
73959;SDS011;62316;48.920;2.342;2023-02-28T16:41:20;18.25;;;14.75;;
73959;SDS011;62316;48.920;2.342;2023-02-28T16:43:48;21.00;;;17.75;;
73959;SDS011;62316;48.920;2.342;2023-02-28T16:46:14;16.50;;;16.50;;
73959;SDS011;62316;48.920;2.342;2023-02-28T16:48:41;20.75;;;16.50;;
73959;SDS011;62316;48.920;2.342;2023-02-28T16:51:11;2.50;;;1.00;;
73959;SDS011;62316;48.920;2.342;2023-02-28T16:53:37;17.00;;;16.50;;
73959;SDS011;62316;48.920;2.342;2023-02-28T16:56:03;16.25;;;15.00;;
73959;SDS011;62316;48.920;2.342;2023-02-28T16:58:29;17.50;;;17.50;;
73959;SDS011;62316;48.920;2.342;2023-02-28T17:00:54;17.00;;;15.00;;
73959;SDS011;62316;48.920;2.342;2023-02-28T17:03:24;18.00;;;15.25;;
73959;SDS011;62316;48.920;2.342;2023-02-28T17:05:52;18.75;;;18.75;;
73959;SDS011;62316;48.920;2.342;2023-02-28T17:08:17;15.75;;;11.50;;
73959;SDS011;62316;48.920;2.342;2023-02-28T17:10:43;22.75;;;22.00;;
73959;SDS011;62316;48.920;2.342;2023-02-28T17:13:08;22.00;;;19.00;;
73959;SDS011;62316;48.920;2.342;2023-02-28T17:15:34;25.25;;;20.25;;